createdAt,value
2022-12-05T00:00:35.962Z,20.42
2022-12-05T00:03:05.700Z,19.10
2022-12-05T00:05:32.367Z,19.30
2022-12-05T00:07:59.012Z,21.15
2022-12-05T00:10:25.672Z,19.90
2022-12-05T00:12:52.447Z,22.63
2022-12-05T00:15:19.317Z,19.67
2022-12-05T00:17:45.992Z,20.40
2022-12-05T00:20:12.669Z,22.13
2022-12-05T00:22:40.506Z,19.17
2022-12-05T00:25:08.213Z,17.25
2022-12-05T00:27:35.276Z,22.02
2022-12-05T00:30:02.300Z,21.52
2022-12-05T00:32:31.229Z,19.30
2022-12-05T00:34:57.861Z,18.23
2022-12-05T00:37:24.887Z,19.02
2022-12-05T00:39:51.520Z,16.73
2022-12-05T00:42:18.183Z,15.77
2022-12-05T00:44:44.842Z,17.30
2022-12-05T00:47:11.535Z,15.13
2022-12-05T00:49:38.210Z,20.05
2022-12-05T00:52:04.972Z,18.00
2022-12-05T00:54:31.621Z,16.00
2022-12-05T00:56:58.235Z,20.33
2022-12-05T00:59:24.913Z,23.08
2022-12-05T01:01:52.374Z,22.60
2022-12-05T01:04:22.723Z,20.92
2022-12-05T01:06:50.867Z,20.52
2022-12-05T01:09:20.494Z,17.63
2022-12-05T01:11:48.194Z,23.23
2022-12-05T01:14:18.045Z,20.05
2022-12-05T01:16:46.534Z,20.05
2022-12-05T01:19:16.619Z,19.42
2022-12-05T01:21:43.595Z,18.63
2022-12-05T01:24:11.575Z,18.30
2022-12-05T01:26:39.911Z,22.00
2022-12-05T01:29:06.756Z,21.02
2022-12-05T01:31:36.137Z,20.25
2022-12-05T01:34:06.232Z,17.90
2022-12-05T01:36:33.411Z,16.77
2022-12-05T01:39:00.514Z,21.23
2022-12-05T01:41:30.932Z,21.67
2022-12-05T01:44:14.604Z,17.90
2022-12-05T01:46:47.714Z,18.55
2022-12-05T01:49:19.099Z,26.75
2022-12-05T01:51:50.468Z,20.92
2022-12-05T01:54:18.795Z,19.67
2022-12-05T01:56:53.285Z,20.00
2022-12-05T01:59:22.833Z,19.48
2022-12-05T02:01:49.705Z,19.70
2022-12-05T02:04:16.764Z,24.73
2022-12-05T02:06:43.647Z,21.25
2022-12-05T02:09:10.276Z,22.90
2022-12-05T02:11:47.151Z,20.08
2022-12-05T02:14:36.595Z,20.83
2022-12-05T02:17:03.223Z,21.00
2022-12-05T02:20:03.528Z,22.92
2022-12-05T02:23:00.645Z,24.77
2022-12-05T02:25:43.464Z,26.55
2022-12-05T02:28:38.091Z,22.70
2022-12-05T02:31:13.591Z,26.23
2022-12-05T02:33:53.376Z,28.00
2022-12-05T02:36:21.031Z,23.13
2022-12-05T02:39:04.841Z,23.25
2022-12-05T02:41:40.751Z,27.80
2022-12-05T02:44:16.175Z,26.88
2022-12-05T02:46:46.419Z,30.33
2022-12-05T02:49:19.097Z,26.85
2022-12-05T02:51:50.402Z,25.98
2022-12-05T02:54:21.317Z,27.77
2022-12-05T02:56:49.680Z,22.75
2022-12-05T02:59:22.862Z,26.30
2022-12-05T03:01:50.273Z,23.23
2022-12-05T03:04:20.174Z,25.95
2022-12-05T03:06:54.452Z,30.13
2022-12-05T03:09:40.237Z,26.83
2022-12-05T03:12:13.167Z,26.52
2022-12-05T03:14:46.408Z,31.98
2022-12-05T03:17:19.751Z,33.67
2022-12-05T03:20:01.574Z,29.30
2022-12-05T03:22:33.315Z,28.65
2022-12-05T03:25:02.389Z,28.50
2022-12-05T03:27:32.850Z,23.65
2022-12-05T03:30:07.792Z,26.80
2022-12-05T03:32:50.624Z,28.50
2022-12-05T03:35:37.617Z,32.70
2022-12-05T03:40:40.517Z,38.40
2022-12-05T03:43:14.639Z,40.78
2022-12-05T03:45:49.002Z,41.22
2022-12-05T03:48:27.529Z,44.88
2022-12-05T03:50:55.859Z,43.28
2022-12-05T03:53:28.233Z,42.63
2022-12-05T03:56:07.767Z,37.35
2022-12-05T03:58:46.952Z,38.20
2022-12-05T04:01:16.782Z,34.85
2022-12-05T04:03:51.798Z,37.38
2022-12-05T04:06:24.729Z,41.20
2022-12-05T04:08:57.610Z,36.50
2022-12-05T04:11:31.456Z,35.38
2022-12-05T04:14:15.433Z,36.78
2022-12-05T04:17:05.217Z,66.22
2022-12-05T04:20:02.101Z,36.50
2022-12-05T04:22:29.381Z,39.90
2022-12-05T04:25:18.969Z,36.40
2022-12-05T04:28:01.992Z,34.20
2022-12-05T04:30:37.082Z,31.95
2022-12-05T04:33:15.334Z,36.63
2022-12-05T04:35:45.277Z,31.00
2022-12-05T04:38:35.415Z,35.03
2022-12-05T04:41:06.620Z,32.47
2022-12-05T04:43:37.054Z,33.53
2022-12-05T04:46:07.477Z,34.42
2022-12-05T04:48:39.038Z,36.75
2022-12-05T04:51:12.415Z,36.72
2022-12-05T04:53:41.507Z,33.45
2022-12-05T04:56:10.614Z,30.63
2022-12-05T04:58:37.311Z,33.40
2022-12-05T05:01:03.913Z,28.33
2022-12-05T05:03:38.495Z,25.90
2022-12-05T05:06:05.602Z,28.63
2022-12-05T05:08:32.338Z,28.17
2022-12-05T05:11:13.167Z,27.95
2022-12-05T05:13:39.776Z,28.23
2022-12-05T05:16:07.884Z,26.35
2022-12-05T05:18:34.663Z,27.75
2022-12-05T05:21:01.400Z,26.52
2022-12-05T05:23:28.302Z,33.03
2022-12-05T05:25:57.912Z,28.35
2022-12-05T05:28:24.540Z,32.25
2022-12-05T05:30:51.295Z,28.38
2022-12-05T05:33:18.051Z,31.73
2022-12-05T05:35:46.837Z,33.45
2022-12-05T05:38:13.463Z,33.10
2022-12-05T05:40:40.099Z,34.50
2022-12-05T05:43:06.808Z,28.55
2022-12-05T05:45:33.494Z,31.10
2022-12-05T05:48:00.161Z,29.88
2022-12-05T05:50:26.931Z,29.23
2022-12-05T05:52:53.558Z,29.38
2022-12-05T05:55:20.517Z,27.80
2022-12-05T05:57:47.135Z,29.17
2022-12-05T06:00:15.565Z,31.85
2022-12-05T06:02:42.719Z,29.40
2022-12-05T06:05:09.851Z,26.85
2022-12-05T06:07:36.533Z,28.70
2022-12-05T06:10:04.377Z,28.42
2022-12-05T06:12:31.054Z,29.27
2022-12-05T06:14:57.696Z,30.77
2022-12-05T06:17:24.324Z,30.08
2022-12-05T06:19:54.217Z,29.45
2022-12-05T06:22:20.857Z,28.45
2022-12-05T06:24:47.486Z,27.50
2022-12-05T06:27:14.190Z,29.88
2022-12-05T06:29:41.173Z,30.92
2022-12-05T06:32:11.220Z,30.05
2022-12-05T06:34:37.956Z,27.98
2022-12-05T06:37:04.649Z,32.38
2022-12-05T06:39:31.265Z,29.45
2022-12-05T06:41:58.003Z,30.58
2022-12-05T06:44:27.043Z,25.60
2022-12-05T06:46:54.460Z,31.60
2022-12-05T06:49:27.866Z,31.77
2022-12-05T06:51:57.690Z,33.03
2022-12-05T06:54:24.356Z,32.67
2022-12-05T06:56:51.005Z,35.50
2022-12-05T06:59:17.651Z,37.60
2022-12-05T07:01:46.363Z,36.10
2022-12-05T07:04:20.684Z,32.58
2022-12-05T07:06:51.090Z,33.13
2022-12-05T07:09:20.677Z,39.78
2022-12-05T07:11:50.292Z,37.55
2022-12-05T07:14:46.251Z,37.47
2022-12-05T07:17:05.331Z,34.08
2022-12-05T07:19:32.088Z,39.35
2022-12-05T07:21:58.867Z,37.40
2022-12-05T07:24:26.923Z,41.20
2022-12-05T07:26:53.679Z,44.22
2022-12-05T07:29:20.579Z,46.75
2022-12-05T07:31:47.259Z,44.15
2022-12-05T07:34:13.999Z,42.33
2022-12-05T07:36:40.624Z,39.50
2022-12-05T07:39:07.338Z,43.83
2022-12-05T07:41:35.031Z,41.75
2022-12-05T07:44:02.020Z,37.97
2022-12-05T07:46:29.627Z,39.20
2022-12-05T07:48:57.583Z,40.97
2022-12-05T07:51:24.348Z,45.58
2022-12-05T07:53:51.100Z,44.05
2022-12-05T07:56:18.650Z,39.70
2022-12-05T07:58:47.737Z,42.22
2022-12-05T08:01:17.782Z,37.75
2022-12-05T08:03:44.751Z,35.72
2022-12-05T08:06:15.556Z,35.50
2022-12-05T08:08:43.183Z,35.08
2022-12-05T08:11:11.372Z,30.42
2022-12-05T08:13:38.428Z,37.45
2022-12-05T08:16:08.437Z,35.67
2022-12-05T08:18:35.155Z,39.35
2022-12-05T08:21:03.332Z,41.10
2022-12-05T08:23:31.693Z,35.75
2022-12-05T08:26:04.111Z,34.13
2022-12-05T08:28:31.132Z,32.10
2022-12-05T08:31:05.204Z,41.22
2022-12-05T08:33:32.016Z,38.92
2022-12-05T08:36:01.464Z,38.75
2022-12-05T08:38:28.380Z,42.83
2022-12-05T08:40:55.075Z,37.38
2022-12-05T08:43:21.641Z,42.42
2022-12-05T08:45:51.321Z,47.70
2022-12-05T08:48:18.459Z,39.65
2022-12-05T08:50:45.530Z,45.85
2022-12-05T08:53:12.424Z,38.13
2022-12-05T08:55:39.197Z,41.55
2022-12-05T08:58:06.266Z,46.15
2022-12-05T09:00:32.882Z,46.78
2022-12-05T09:02:59.683Z,44.40
2022-12-05T09:05:28.686Z,47.63
2022-12-05T09:07:56.107Z,47.47
2022-12-05T09:10:22.857Z,50.33
2022-12-05T09:12:51.336Z,46.60
2022-12-05T09:15:18.548Z,52.15
2022-12-05T09:17:45.215Z,48.40
2022-12-05T09:20:13.952Z,47.10
2022-12-05T09:22:41.510Z,48.88
2022-12-05T09:25:08.950Z,46.53
2022-12-05T09:27:35.610Z,48.30
2022-12-05T09:30:02.237Z,46.83
2022-12-05T09:32:30.094Z,56.50
2022-12-05T09:34:57.076Z,43.17
2022-12-05T09:37:38.658Z,41.83
2022-12-05T09:40:06.519Z,39.20
2022-12-05T09:42:40.889Z,44.90
2022-12-05T09:45:14.565Z,45.55
2022-12-05T09:47:51.716Z,43.85
2022-12-05T09:50:45.803Z,44.47
2022-12-05T09:53:18.321Z,44.85
2022-12-05T09:55:53.559Z,44.15
2022-12-05T09:58:38.134Z,49.60
2022-12-05T10:01:21.392Z,47.53
2022-12-05T10:04:18.724Z,47.30
2022-12-05T10:09:24.939Z,45.25
2022-12-05T10:12:13.917Z,50.42
2022-12-05T10:14:51.582Z,43.25
2022-12-05T10:17:35.347Z,41.40
2022-12-05T10:20:15.041Z,38.22
2022-12-05T10:22:57.058Z,35.22
2022-12-05T10:25:27.492Z,38.03
2022-12-05T10:28:00.113Z,38.90
2022-12-05T10:30:32.229Z,41.35
2022-12-05T10:32:59.030Z,45.92
2022-12-05T10:35:28.697Z,35.85
2022-12-05T10:38:03.056Z,40.30
2022-12-05T10:40:40.663Z,32.65
2022-12-05T10:43:10.254Z,34.85
2022-12-05T10:45:42.779Z,36.30
2022-12-05T10:48:12.349Z,31.83
2022-12-05T10:50:42.411Z,33.38
2022-12-05T10:53:15.353Z,43.72
2022-12-05T10:56:06.404Z,32.38
2022-12-05T10:58:32.371Z,39.70
2022-12-05T11:01:08.584Z,38.28
2022-12-05T11:06:25.752Z,37.15
2022-12-05T11:09:05.572Z,41.70
2022-12-05T11:11:33.928Z,38.45
2022-12-05T11:14:03.865Z,35.60
2022-12-05T11:16:34.843Z,37.85
2022-12-05T11:19:32.422Z,43.40
2022-12-05T11:22:00.243Z,36.25
2022-12-05T11:24:31.487Z,33.00
2022-12-05T11:27:01.543Z,36.50
2022-12-05T11:29:35.843Z,33.85
2022-12-05T11:32:06.303Z,31.73
2022-12-05T11:34:42.792Z,33.88
2022-12-05T11:37:15.009Z,30.23
2022-12-05T11:39:41.718Z,22.23
2022-12-05T11:42:21.213Z,26.48
2022-12-05T11:45:02.988Z,29.52
2022-12-05T11:47:40.788Z,27.52
2022-12-05T11:50:15.109Z,32.22
2022-12-05T11:53:12.252Z,24.83
2022-12-05T11:55:46.044Z,25.17
2022-12-05T11:58:38.098Z,28.40
2022-12-05T12:01:35.337Z,30.52
2022-12-05T12:04:34.053Z,26.52
2022-12-05T12:07:16.986Z,26.77
2022-12-05T12:10:16.449Z,27.95
2022-12-05T12:12:52.170Z,28.15
2022-12-05T12:15:35.040Z,24.77
2022-12-05T12:18:25.458Z,20.45
2022-12-05T12:21:04.865Z,22.23
2022-12-05T12:23:47.875Z,23.75
2022-12-05T12:26:19.559Z,21.33
2022-12-05T12:29:02.147Z,21.88
2022-12-05T12:31:55.204Z,22.95
2022-12-05T12:34:49.578Z,26.60
2022-12-05T12:37:27.027Z,24.40
2022-12-05T12:40:09.999Z,26.17
2022-12-05T12:42:48.728Z,26.48
2022-12-05T12:45:47.799Z,26.60
2022-12-05T12:48:26.615Z,24.92
2022-12-05T12:50:54.892Z,26.58
2022-12-05T12:53:57.271Z,27.20
2022-12-05T12:56:24.871Z,24.83
2022-12-05T12:58:55.023Z,27.25
2022-12-05T13:01:33.098Z,26.63
2022-12-05T13:04:12.538Z,30.45
2022-12-05T13:06:46.522Z,23.88
2022-12-05T13:09:26.695Z,21.42
2022-12-05T13:11:54.968Z,28.15
2022-12-05T13:14:25.825Z,22.88
2022-12-05T13:16:54.849Z,25.58
2022-12-05T13:19:37.513Z,25.38
2022-12-05T13:22:05.993Z,24.25
2022-12-05T13:24:32.717Z,28.75
2022-12-05T13:27:05.334Z,23.55
2022-12-05T13:29:36.438Z,26.35
2022-12-05T13:32:05.832Z,22.88
2022-12-05T13:34:34.712Z,26.63
2022-12-05T13:37:26.235Z,23.33
2022-12-05T13:40:12.084Z,25.75
2022-12-05T13:42:39.087Z,33.13
2022-12-05T13:45:05.681Z,26.13
2022-12-05T13:47:48.964Z,22.65
2022-12-05T13:50:31.791Z,23.35
2022-12-05T13:53:04.018Z,23.75
2022-12-05T13:55:36.669Z,27.17
2022-12-05T13:58:23.325Z,25.73
2022-12-05T14:00:54.298Z,26.67
2022-12-05T14:03:21.963Z,24.17
2022-12-05T14:05:52.527Z,26.85
2022-12-05T14:08:49.691Z,25.30
2022-12-05T14:11:16.509Z,21.85
2022-12-05T14:13:45.044Z,24.17
2022-12-05T14:16:44.374Z,24.33
2022-12-05T14:19:33.896Z,24.48
2022-12-05T14:22:21.833Z,27.55
2022-12-05T14:25:04.866Z,22.05
2022-12-05T14:27:44.267Z,20.60
2022-12-05T14:30:22.638Z,29.48
2022-12-05T14:32:52.731Z,23.92
2022-12-05T14:35:33.160Z,20.63
2022-12-05T14:38:04.045Z,22.60
2022-12-05T14:40:36.201Z,22.15
2022-12-05T14:43:05.774Z,23.90
2022-12-05T14:45:48.085Z,25.05
2022-12-05T14:48:14.834Z,24.42
2022-12-05T14:50:48.551Z,29.05
2022-12-05T14:53:15.224Z,29.17
2022-12-05T14:55:45.000Z,25.73
2022-12-05T14:58:20.298Z,24.40
2022-12-05T15:00:57.269Z,24.83
2022-12-05T15:03:31.348Z,22.08
2022-12-05T15:06:03.536Z,19.30
2022-12-05T15:08:39.161Z,18.00
2022-12-05T15:11:05.789Z,27.33
2022-12-05T15:13:33.237Z,23.20
2022-12-05T15:16:03.015Z,22.55
2022-12-05T15:18:36.613Z,23.52
2022-12-05T15:21:24.900Z,21.23
2022-12-05T15:24:04.672Z,20.08
2022-12-05T15:26:49.288Z,22.60
2022-12-05T15:29:23.692Z,19.73
2022-12-05T15:32:07.323Z,20.33
2022-12-05T15:34:44.051Z,21.08
2022-12-05T15:37:13.860Z,22.95
2022-12-05T15:39:56.694Z,20.92
2022-12-05T15:42:29.921Z,20.95
2022-12-05T15:45:23.430Z,25.55
2022-12-05T15:47:54.195Z,25.67
2022-12-05T15:50:25.023Z,24.33
2022-12-05T15:52:56.460Z,23.15
2022-12-05T15:55:32.422Z,24.65
2022-12-05T15:58:13.064Z,25.17
2022-12-05T16:00:45.892Z,25.15
2022-12-05T16:03:20.619Z,24.52
2022-12-05T16:05:57.242Z,24.35
2022-12-05T16:08:24.713Z,25.45
2022-12-05T16:10:52.036Z,21.60
2022-12-05T16:13:25.003Z,26.55
2022-12-05T16:15:54.749Z,22.05
2022-12-05T16:18:26.867Z,36.88
2022-12-05T16:20:53.936Z,23.98
2022-12-05T16:23:30.533Z,25.05
2022-12-05T16:26:12.575Z,23.55
2022-12-05T16:28:39.608Z,23.13
2022-12-05T16:31:06.946Z,25.00
2022-12-05T16:33:36.563Z,21.80
2022-12-05T16:36:13.358Z,29.52
2022-12-05T16:38:43.288Z,27.77
2022-12-05T16:41:17.189Z,23.35
2022-12-05T16:43:45.827Z,23.50
2022-12-05T16:46:13.633Z,24.25
2022-12-05T16:48:44.621Z,23.10
2022-12-05T16:51:11.306Z,24.17
2022-12-05T16:53:39.424Z,22.60
2022-12-05T16:56:10.443Z,25.10
2022-12-05T16:58:37.092Z,25.60
2022-12-05T17:01:06.655Z,23.58
2022-12-05T17:03:35.741Z,22.35
2022-12-05T17:06:03.669Z,23.05
2022-12-05T17:08:30.365Z,26.95
2022-12-05T17:10:58.072Z,23.98
2022-12-05T17:13:25.152Z,26.98
2022-12-05T17:15:51.824Z,27.80
2022-12-05T17:18:27.996Z,23.35
2022-12-05T17:20:57.579Z,24.15
2022-12-05T17:23:24.240Z,26.88
2022-12-05T17:25:54.560Z,24.20
2022-12-05T17:28:21.597Z,19.70
2022-12-05T17:30:48.435Z,29.00
2022-12-05T17:33:17.945Z,20.67
2022-12-05T17:35:45.098Z,23.67
2022-12-05T17:38:12.154Z,28.70
2022-12-05T17:40:39.265Z,28.88
2022-12-05T17:43:06.263Z,28.75
2022-12-05T17:45:33.491Z,26.83
2022-12-05T17:48:00.179Z,29.75
2022-12-05T17:50:27.948Z,22.08
2022-12-05T17:52:56.930Z,22.35
2022-12-05T17:55:28.156Z,25.25
2022-12-05T17:57:55.836Z,24.73
2022-12-05T18:00:24.535Z,30.05
2022-12-05T18:02:52.528Z,23.85
2022-12-05T18:05:19.865Z,48.17
2022-12-05T18:07:47.423Z,31.67
2022-12-05T18:10:17.708Z,25.42
2022-12-05T18:12:44.588Z,24.50
2022-12-05T18:15:12.329Z,19.75
2022-12-05T18:17:39.405Z,29.08
2022-12-05T18:20:09.228Z,24.85
2022-12-05T18:22:39.994Z,24.75
2022-12-05T18:25:07.603Z,25.20
2022-12-05T18:27:35.466Z,22.20
2022-12-05T18:30:03.770Z,19.77
2022-12-05T18:32:30.763Z,22.80
2022-12-05T18:34:59.129Z,22.02
2022-12-05T18:37:29.255Z,24.55
2022-12-05T18:39:56.482Z,27.98
2022-12-05T18:42:23.570Z,29.65
2022-12-05T18:44:50.386Z,20.90
2022-12-05T18:47:17.196Z,24.48
2022-12-05T18:49:43.856Z,25.00
2022-12-05T18:52:10.494Z,24.80
2022-12-05T18:54:37.147Z,25.20
2022-12-05T18:57:03.890Z,18.10
2022-12-05T18:59:30.854Z,22.75
2022-12-05T19:02:00.473Z,22.40
2022-12-05T19:04:28.884Z,24.98
2022-12-05T19:06:58.089Z,23.38
2022-12-05T19:09:27.376Z,22.38
2022-12-05T19:11:56.998Z,24.10
2022-12-05T19:14:25.001Z,22.42
2022-12-05T19:16:59.947Z,21.48
2022-12-05T19:19:27.802Z,18.90
2022-12-05T19:21:54.689Z,21.23
2022-12-05T19:24:21.622Z,18.85
2022-12-05T19:26:48.286Z,21.08
2022-12-05T19:29:16.711Z,21.20
2022-12-05T19:31:43.966Z,21.58
2022-12-05T19:34:11.504Z,22.17
2022-12-05T19:36:41.808Z,23.83
2022-12-05T19:39:16.015Z,23.88
2022-12-05T19:41:43.159Z,24.02
2022-12-05T19:44:10.065Z,20.60
2022-12-05T19:46:37.649Z,22.50
2022-12-05T19:49:07.344Z,25.25
2022-12-05T19:51:34.624Z,21.13
2022-12-05T19:54:03.003Z,20.88
2022-12-05T19:56:31.397Z,21.63
2022-12-05T19:58:59.528Z,20.75
2022-12-05T20:01:26.295Z,20.90
2022-12-05T20:03:55.841Z,29.50
2022-12-05T20:06:23.782Z,23.77
2022-12-05T20:08:52.540Z,26.15
2022-12-05T20:11:21.999Z,30.35
2022-12-05T20:13:48.757Z,27.85
2022-12-05T20:16:18.851Z,27.77
2022-12-05T20:18:45.971Z,26.85
2022-12-05T20:21:15.653Z,20.45
2022-12-05T20:23:42.654Z,26.13
2022-12-05T20:26:13.062Z,26.92
2022-12-05T20:28:39.986Z,29.63
2022-12-05T20:31:08.683Z,26.77
2022-12-05T20:33:35.976Z,28.25
2022-12-05T20:36:06.654Z,28.80
2022-12-05T20:38:33.492Z,28.13
2022-12-05T20:41:01.862Z,30.02
2022-12-05T20:43:29.292Z,26.65
2022-12-05T20:45:57.032Z,21.63
2022-12-05T20:48:26.128Z,22.83
2022-12-05T20:50:54.568Z,24.52
2022-12-05T20:53:22.274Z,23.48
2022-12-05T20:55:48.888Z,28.17
2022-12-05T20:58:15.488Z,26.00
2022-12-05T21:00:43.700Z,25.55
2022-12-05T21:03:16.864Z,24.50
2022-12-05T21:05:43.871Z,28.50
2022-12-05T21:08:10.579Z,23.88
2022-12-05T21:10:37.397Z,25.08
2022-12-05T21:13:04.030Z,22.52
2022-12-05T21:15:30.594Z,18.38
2022-12-05T21:17:57.545Z,20.98
2022-12-05T21:20:24.280Z,22.58
2022-12-05T21:22:51.097Z,19.63
2022-12-05T21:25:17.826Z,22.60
2022-12-05T21:27:44.494Z,22.92
2022-12-05T21:30:11.375Z,23.13
2022-12-05T21:32:38.202Z,22.25
2022-12-05T21:35:05.373Z,21.30
2022-12-05T21:37:32.058Z,20.40
2022-12-05T21:39:59.007Z,23.90
2022-12-05T21:42:26.124Z,25.00
2022-12-05T21:44:52.800Z,22.27
2022-12-05T21:47:19.448Z,24.35
2022-12-05T21:49:46.123Z,28.98
2022-12-05T21:52:13.924Z,21.52
2022-12-05T21:54:40.623Z,24.58
2022-12-05T21:57:07.284Z,22.65
2022-12-05T21:59:33.945Z,17.25
2022-12-05T22:02:00.714Z,18.48
2022-12-05T22:04:27.381Z,21.63
2022-12-05T22:06:54.093Z,19.42
2022-12-05T22:09:20.735Z,17.75
2022-12-05T22:11:47.550Z,19.88
2022-12-05T22:14:14.207Z,20.00
2022-12-05T22:16:40.892Z,19.92
2022-12-05T22:19:07.693Z,16.48
2022-12-05T22:21:34.393Z,18.80
2022-12-05T22:24:04.535Z,20.85
2022-12-05T22:26:31.212Z,19.60
2022-12-05T22:28:57.914Z,18.17
2022-12-05T22:31:25.028Z,15.50
2022-12-05T22:33:52.047Z,19.88
2022-12-05T22:36:19.629Z,18.50
2022-12-05T22:38:47.716Z,15.18
2022-12-05T22:41:18.219Z,13.82
2022-12-05T22:43:46.287Z,14.05
2022-12-05T22:46:21.478Z,12.63
2022-12-05T22:48:49.470Z,9.63
2022-12-05T22:51:17.543Z,10.38
2022-12-05T22:53:44.662Z,14.82
2022-12-05T22:56:14.098Z,13.30
2022-12-05T22:58:42.018Z,13.48
2022-12-05T23:01:22.846Z,10.40
2022-12-05T23:03:53.823Z,10.02
2022-12-05T23:06:20.572Z,10.80
2022-12-05T23:08:48.094Z,10.05
2022-12-05T23:11:16.601Z,6.85
2022-12-05T23:13:43.725Z,8.35
2022-12-05T23:16:15.113Z,10.45
2022-12-05T23:18:50.162Z,7.63
2022-12-05T23:21:22.626Z,8.57
2022-12-05T23:23:51.559Z,7.90
2022-12-05T23:26:19.802Z,7.80
2022-12-05T23:28:46.456Z,9.57
2022-12-05T23:31:13.848Z,7.68
2022-12-05T23:33:40.824Z,9.23
2022-12-05T23:36:08.894Z,9.20
2022-12-05T23:38:37.035Z,7.75
2022-12-05T23:41:11.220Z,8.45
2022-12-05T23:43:38.173Z,9.07
2022-12-05T23:46:06.056Z,9.02
2022-12-05T23:48:32.940Z,8.65
2022-12-05T23:51:08.942Z,7.03
2022-12-05T23:53:37.388Z,7.15
2022-12-05T23:56:07.788Z,9.50
2022-12-05T23:58:35.184Z,7.05
